METAR Data
IDs: Format: Raw Decoded Include TAF

Data at: 1935 UTC 25 Oct 2021

METAR for:KIAH (Houston/Bush Intl, TX, US)
Text:KIAH 251853Z 33005KT 10SM SCT035 31/22 A2993 RMK AO2 SLP135 T03110222
Temperature: 31.1°C ( 88°F)
Dewpoint: 22.2°C ( 72°F) [RH = 59%]
Pressure (altimeter):29.93 inches Hg (1013.6 mb) [Sea level pressure: 1013.5 mb]
Winds:from the NNW (330 degrees) at 6 MPH (5 knots; 2.6 m/s)
Visibility:10 or more sm (16+ km)
Ceiling:at least 12,000 feet AGL
Clouds: scattered clouds at 3500 feet AGL

METAR for:KHOU (Houston/Hobby Arpt, TX, US)
Text:KHOU 251853Z 00000KT 10SM BKN032 32/21 A2993 RMK AO2 SLP139 T03170211
Temperature: 31.7°C ( 89°F)
Dewpoint: 21.1°C ( 70°F) [RH = 54%]
Pressure (altimeter):29.93 inches Hg (1013.6 mb) [Sea level pressure: 1013.9 mb]
Winds:calm
Visibility:10 or more sm (16+ km)
Ceiling:3200 feet AGL
Clouds: broken clouds at 3200 feet AGL

METAR for:KGLS (Galveston/Scholes In, TX, US)
Text:KGLS 251852Z 20007KT 10SM FEW018 FEW024 SCT029 29/24 A2995 RMK AO2 SLP141 T02940239
Temperature: 29.4°C ( 85°F)
Dewpoint: 23.9°C ( 75°F) [RH = 72%]
Pressure (altimeter):29.95 inches Hg (1014.3 mb) [Sea level pressure: 1014.1 mb]
Winds:from the SSW (200 degrees) at 8 MPH (7 knots; 3.6 m/s)
Visibility:10 or more sm (16+ km)
Ceiling:at least 12,000 feet AGL
Clouds: few clouds at 1800 feet AGL, few clouds at 2400 feet AGL, scattered clouds at 2900 feet AGL

METAR for:KLVJ (Houston/Pearland Rgn, TX, US)
Text:KLVJ 251853Z AUTO 16003KT 10SM FEW034 31/22 A2995 RMK AO2 SLP141 T03060217
Temperature: 30.6°C ( 87°F)
Dewpoint: 21.7°C ( 71°F) [RH = 59%]
Pressure (altimeter):29.95 inches Hg (1014.3 mb) [Sea level pressure: 1014.1 mb]
Winds:from the SSE (160 degrees) at 3 MPH (3 knots; 1.5 m/s)
Visibility:10 or more sm (16+ km)
Ceiling:at least 12,000 feet AGL
Clouds: few clouds at 3400 feet AGL
QC Flag:automated observation with no human augmentation

METAR for:KSGR (Houston/Sugar Land R, TX, US)
Text:KSGR 251853Z 00000KT 10SM CLR 31/22 A2993 RMK AO2 SLP136 T03060217
Temperature: 30.6°C ( 87°F)
Dewpoint: 21.7°C ( 71°F) [RH = 59%]
Pressure (altimeter):29.93 inches Hg (1013.6 mb) [Sea level pressure: 1013.6 mb]
Winds:calm
Visibility:10 or more sm (16+ km)
Ceiling:at least 12,000 feet AGL
Clouds:sky clear below 12,000 feet AGL

METAR for:KDWH (Houston/Hooks Mem, TX, US)
Text:KDWH 251853Z 28003KT 10SM BKN022 29/23 A2994 RMK AO2 SLP137 T02940228
Temperature: 29.4°C ( 85°F)
Dewpoint: 22.8°C ( 73°F) [RH = 68%]
Pressure (altimeter):29.94 inches Hg (1014.0 mb) [Sea level pressure: 1013.7 mb]
Winds:from the W (280 degrees) at 3 MPH (3 knots; 1.5 m/s)
Visibility:10 or more sm (16+ km)
Ceiling:2200 feet AGL
Clouds: broken clouds at 2200 feet AGL

METAR for:KCLL (College Station/East, TX, US)
Text:KCLL 251925Z VRB05KT 10SM SCT023 29/23 A2993 RMK AO2 T02940228
Temperature: 29.4°C ( 85°F)
Dewpoint: 22.8°C ( 73°F) [RH = 68%]
Pressure (altimeter):29.93 inches Hg (1013.6 mb)
Winds:variable direction winds at 6 MPH (5 knots; 2.6 m/s)
Visibility:10 or more sm (16+ km)
Ceiling:at least 12,000 feet AGL
Clouds: scattered clouds at 2300 feet AGL

METAR for:KUTS (Huntsville Muni, TX, US)
Text:KUTS 251853Z AUTO 00000KT 10SM FEW021 30/22 A2995 RMK AO2 SLP137 T03000222
Temperature: 30.0°C ( 86°F)
Dewpoint: 22.2°C ( 72°F) [RH = 63%]
Pressure (altimeter):29.95 inches Hg (1014.3 mb) [Sea level pressure: 1013.7 mb]
Winds:calm
Visibility:10 or more sm (16+ km)
Ceiling:at least 12,000 feet AGL
Clouds: few clouds at 2100 feet AGL
QC Flag:automated observation with no human augmentation

METAR for:KCXO (Conroe/Executive Arp, TX, US)
Text:KCXO 251925Z 00000KT 10SM BKN026 29/23 A2994 RMK AO2 T02890228
Temperature: 28.9°C ( 84°F)
Dewpoint: 22.8°C ( 73°F) [RH = 70%]
Pressure (altimeter):29.94 inches Hg (1014.0 mb)
Winds:calm
Visibility:10 or more sm (16+ km)
Ceiling:2600 feet AGL
Clouds: broken clouds at 2600 feet AGL

METAR for:KLBX (Angleton/Texas Gulf, TX, US)
Text:KLBX 251853Z AUTO 35003KT 10SM BKN039 BKN047 32/21 A2993 RMK AO2 SLP134 T03170211
Temperature: 31.7°C ( 89°F)
Dewpoint: 21.1°C ( 70°F) [RH = 54%]
Pressure (altimeter):29.93 inches Hg (1013.6 mb) [Sea level pressure: 1013.4 mb]
Winds:from the N (350 degrees) at 3 MPH (3 knots; 1.5 m/s)
Visibility:10 or more sm (16+ km)
Ceiling:3900 feet AGL
Clouds: broken clouds at 3900 feet AGL, broken clouds at 4700 feet AGL
QC Flag:automated observation with no human augmentation

METAR for:KPSX (Palacios Muni, TX, US)
Text:KPSX 251853Z AUTO 20009KT 10SM CLR 29/24 A2993 RMK AO2 SLP136 T02940244
Temperature: 29.4°C ( 85°F)
Dewpoint: 24.4°C ( 76°F) [RH = 75%]
Pressure (altimeter):29.93 inches Hg (1013.6 mb) [Sea level pressure: 1013.6 mb]
Winds:from the SSW (200 degrees) at 10 MPH (9 knots; 4.6 m/s)
Visibility:10 or more sm (16+ km)
Ceiling:at least 12,000 feet AGL
Clouds:sky clear below 12,000 feet AGL
QC Flag:automated observation with no human augmentation